sensor_id;sensor_type;location;lat;lon;timestamp;pressure;altitude;pressure_sealevel;temperature
61595;BMP280;47397;48.194;11.632;2022-08-01T00:00:42;95951.53;;;20.21
61595;BMP280;47397;48.194;11.632;2022-08-01T00:01:43;95953.47;;;20.32
61595;BMP280;47397;48.194;11.632;2022-08-01T00:02:43;95955.88;;;20.21
61595;BMP280;47397;48.194;11.632;2022-08-01T00:03:44;95952.81;;;20.28
61595;BMP280;47397;48.194;11.632;2022-08-01T00:04:44;95955.41;;;20.43
61595;BMP280;47397;48.194;11.632;2022-08-01T00:05:44;95955.88;;;20.49
61595;BMP280;47397;48.194;11.632;2022-08-01T00:06:46;95947.25;;;20.63
61595;BMP280;47397;48.194;11.632;2022-08-01T00:07:47;95947.56;;;20.58
61595;BMP280;47397;48.194;11.632;2022-08-01T00:08:47;95950.53;;;20.79
61595;BMP280;47397;48.194;11.632;2022-08-01T00:09:48;95953.69;;;20.70
61595;BMP280;47397;48.194;11.632;2022-08-01T00:10:48;95950.19;;;20.71
61595;BMP280;47397;48.194;11.632;2022-08-01T00:11:49;95950.81;;;20.75
61595;BMP280;47397;48.194;11.632;2022-08-01T00:12:49;95953.25;;;20.64
61595;BMP280;47397;48.194;11.632;2022-08-01T00:13:50;95948.13;;;20.76
61595;BMP280;47397;48.194;11.632;2022-08-01T00:14:50;95953.19;;;20.78
61595;BMP280;47397;48.194;11.632;2022-08-01T00:15:50;95942.50;;;20.84
61595;BMP280;47397;48.194;11.632;2022-08-01T00:16:51;95949.88;;;20.90
61595;BMP280;47397;48.194;11.632;2022-08-01T00:17:51;95953.78;;;20.83
61595;BMP280;47397;48.194;11.632;2022-08-01T00:18:52;95948.41;;;20.86
61595;BMP280;47397;48.194;11.632;2022-08-01T00:19:53;95948.41;;;20.86
61595;BMP280;47397;48.194;11.632;2022-08-01T00:20:53;95955.03;;;20.90
61595;BMP280;47397;48.194;11.632;2022-08-01T00:21:55;95955.22;;;20.87
61595;BMP280;47397;48.194;11.632;2022-08-01T00:22:55;95954.19;;;20.89
61595;BMP280;47397;48.194;11.632;2022-08-01T00:23:56;95952.25;;;20.93
61595;BMP280;47397;48.194;11.632;2022-08-01T00:24:56;95953.56;;;20.86
61595;BMP280;47397;48.194;11.632;2022-08-01T00:25:57;95954.94;;;20.91
61595;BMP280;47397;48.194;11.632;2022-08-01T00:26:57;95950.81;;;20.75
61595;BMP280;47397;48.194;11.632;2022-08-01T00:27:57;95949.53;;;20.82
61595;BMP280;47397;48.194;11.632;2022-08-01T00:28:58;95956.88;;;20.88
61595;BMP280;47397;48.194;11.632;2022-08-01T00:29:58;95955.44;;;20.84
61595;BMP280;47397;48.194;11.632;2022-08-01T00:30:59;95956.34;;;20.83
61595;BMP280;47397;48.194;11.632;2022-08-01T00:31:59;95946.28;;;20.78
61595;BMP280;47397;48.194;11.632;2022-08-01T00:33:00;95952.75;;;20.85
61595;BMP280;47397;48.194;11.632;2022-08-01T00:34:00;95951.09;;;20.84
61595;BMP280;47397;48.194;11.632;2022-08-01T00:35:01;95956.50;;;20.94
61595;BMP280;47397;48.194;11.632;2022-08-01T00:36:01;95957.22;;;20.96
61595;BMP280;47397;48.194;11.632;2022-08-01T00:37:03;95954.94;;;20.91
61595;BMP280;47397;48.194;11.632;2022-08-01T00:38:03;95966.50;;;20.86
61595;BMP280;47397;48.194;11.632;2022-08-01T00:39:04;95959.19;;;20.92
61595;BMP280;47397;48.194;11.632;2022-08-01T00:40:05;95955.56;;;20.95
61595;BMP280;47397;48.194;11.632;2022-08-01T00:41:06;95961.31;;;20.86
61595;BMP280;47397;48.194;11.632;2022-08-01T00:42:07;95958.16;;;20.95
61595;BMP280;47397;48.194;11.632;2022-08-01T00:43:09;95964.44;;;20.91
61595;BMP280;47397;48.194;11.632;2022-08-01T00:44:09;95963.22;;;20.97
61595;BMP280;47397;48.194;11.632;2022-08-01T00:45:10;95956.09;;;21.00
61595;BMP280;47397;48.194;11.632;2022-08-01T00:46:10;95956.81;;;21.02
61595;BMP280;47397;48.194;11.632;2022-08-01T00:47:11;95953.59;;;20.99
61595;BMP280;47397;48.194;11.632;2022-08-01T00:48:11;95956.50;;;20.94
61595;BMP280;47397;48.194;11.632;2022-08-01T00:49:12;95956.00;;;21.02
61595;BMP280;47397;48.194;11.632;2022-08-01T00:50:12;95958.97;;;20.96
61595;BMP280;47397;48.194;11.632;2022-08-01T00:51:13;95953.59;;;20.99
61595;BMP280;47397;48.194;11.632;2022-08-01T00:52:15;95951.94;;;20.98
61595;BMP280;47397;48.194;11.632;2022-08-01T00:53:15;95952.88;;;20.97
61595;BMP280;47397;48.194;11.632;2022-08-01T00:54:16;95954.94;;;20.91
61595;BMP280;47397;48.194;11.632;2022-08-01T00:55:18;95956.69;;;20.91
61595;BMP280;47397;48.194;11.632;2022-08-01T00:56:19;95955.75;;;20.92
61595;BMP280;47397;48.194;11.632;2022-08-01T00:57:19;95960.19;;;20.90
61595;BMP280;47397;48.194;11.632;2022-08-01T00:58:20;95950.41;;;20.95
61595;BMP280;47397;48.194;11.632;2022-08-01T00:59:21;95949.28;;;20.99
61595;BMP280;47397;48.194;11.632;2022-08-01T01:00:23;95956.09;;;21.00
61595;BMP280;47397;48.194;11.632;2022-08-01T01:01:25;95962.09;;;21.01
61595;BMP280;47397;48.194;11.632;2022-08-01T01:02:26;95951.75;;;21.01
61595;BMP280;47397;48.194;11.632;2022-08-01T01:03:26;95950.94;;;21.00
61595;BMP280;47397;48.194;11.632;2022-08-01T01:04:26;95948.88;;;21.05
61595;BMP280;47397;48.194;11.632;2022-08-01T01:05:27;95959.00;;;21.08
61595;BMP280;47397;48.194;11.632;2022-08-01T01:06:44;95957.56;;;21.04
61595;BMP280;47397;48.194;11.632;2022-08-01T01:07:54;95960.97;;;21.05
61595;BMP280;47397;48.194;11.632;2022-08-01T01:09:05;95951.66;;;21.02
61595;BMP280;47397;48.194;11.632;2022-08-01T01:10:11;95952.28;;;21.06
61595;BMP280;47397;48.194;11.632;2022-08-01T01:11:17;95956.44;;;21.08
61595;BMP280;47397;48.194;11.632;2022-08-01T01:12:26;95958.19;;;21.08
61595;BMP280;47397;48.194;11.632;2022-08-01T01:13:33;95960.13;;;21.04
61595;BMP280;47397;48.194;11.632;2022-08-01T01:14:41;95957.03;;;20.99
61595;BMP280;47397;48.194;11.632;2022-08-01T01:15:46;95964.38;;;21.05
61595;BMP280;47397;48.194;11.632;2022-08-01T01:16:47;95956.09;;;21.00
61595;BMP280;47397;48.194;11.632;2022-08-01T01:17:56;95955.59;;;21.08
61595;BMP280;47397;48.194;11.632;2022-08-01T01:19:00;95955.50;;;21.09
61595;BMP280;47397;48.194;11.632;2022-08-01T01:20:02;95954.25;;;21.02
61595;BMP280;47397;48.194;11.632;2022-08-01T01:21:07;95956.53;;;21.07
61595;BMP280;47397;48.194;11.632;2022-08-01T01:22:22;95957.44;;;21.06
61595;BMP280;47397;48.194;11.632;2022-08-01T01:23:34;95957.25;;;21.09
61595;BMP280;47397;48.194;11.632;2022-08-01T01:24:40;95951.16;;;21.10
61595;BMP280;47397;48.194;11.632;2022-08-01T01:25:54;95956.81;;;21.02
61595;BMP280;47397;48.194;11.632;2022-08-01T01:27:06;95958.47;;;21.03
61595;BMP280;47397;48.194;11.632;2022-08-01T01:28:15;95959.50;;;21.01
61595;BMP280;47397;48.194;11.632;2022-08-01T01:29:21;95962.38;;;20.96
61595;BMP280;47397;48.194;11.632;2022-08-01T01:30:25;95970.13;;;20.96
61595;BMP280;47397;48.194;11.632;2022-08-01T01:31:28;95959.19;;;20.92
61595;BMP280;47397;48.194;11.632;2022-08-01T01:32:32;95958.44;;;20.90
61595;BMP280;47397;48.194;11.632;2022-08-01T01:33:34;95956.69;;;20.91
61595;BMP280;47397;48.194;11.632;2022-08-01T01:34:37;95970.44;;;20.91
61595;BMP280;47397;48.194;11.632;2022-08-01T01:35:41;95962.25;;;20.85
61595;BMP280;47397;48.194;11.632;2022-08-01T01:36:43;95962.88;;;20.88
61595;BMP280;47397;48.194;11.632;2022-08-01T01:37:45;95963.13;;;20.98
61595;BMP280;47397;48.194;11.632;2022-08-01T01:38:46;95962.97;;;20.87
61595;BMP280;47397;48.194;11.632;2022-08-01T01:39:48;95961.13;;;20.89
61595;BMP280;47397;48.194;11.632;2022-08-01T01:40:51;95971.16;;;20.94
61595;BMP280;47397;48.194;11.632;2022-08-01T01:41:53;95955.75;;;20.92
61595;BMP280;47397;48.194;11.632;2022-08-01T01:42:55;95970.38;;;20.79
61595;BMP280;47397;48.194;11.632;2022-08-01T01:43:58;95962.81;;;20.76
61595;BMP280;47397;48.194;11.632;2022-08-01T01:45:04;95964.75;;;20.72
61595;BMP280;47397;48.194;11.632;2022-08-01T01:46:05;95964.84;;;20.71
61595;BMP280;47397;48.194;11.632;2022-08-01T01:47:06;95966.31;;;20.75
61595;BMP280;47397;48.194;11.632;2022-08-01T01:48:09;95967.63;;;20.82
61595;BMP280;47397;48.194;11.632;2022-08-01T01:49:11;95963.63;;;20.76
61595;BMP280;47397;48.194;11.632;2022-08-01T01:50:12;95962.44;;;20.82
61595;BMP280;47397;48.194;11.632;2022-08-01T01:51:15;95965.78;;;20.70
61595;BMP280;47397;48.194;11.632;2022-08-01T01:52:17;95966.31;;;20.75
61595;BMP280;47397;48.194;11.632;2022-08-01T01:53:20;95958.47;;;20.76
61595;BMP280;47397;48.194;11.632;2022-08-01T01:54:22;95965.38;;;20.76
61595;BMP280;47397;48.194;11.632;2022-08-01T01:55:23;95960.22;;;20.76
61595;BMP280;47397;48.194;11.632;2022-08-01T01:56:25;95962.81;;;20.76
61595;BMP280;47397;48.194;11.632;2022-08-01T01:57:27;95962.06;;;20.74
61595;BMP280;47397;48.194;11.632;2022-08-01T01:58:31;95966.69;;;20.83
61595;BMP280;47397;48.194;11.632;2022-08-01T01:59:33;95969.72;;;20.75
61595;BMP280;47397;48.194;11.632;2022-08-01T02:00:36;95962.59;;;20.79
61595;BMP280;47397;48.194;11.632;2022-08-01T02:01:38;95966.31;;;20.75
61595;BMP280;47397;48.194;11.632;2022-08-01T02:02:39;95968.91;;;20.75
61595;BMP280;47397;48.194;11.632;2022-08-01T02:03:40;95963.53;;;20.78
61595;BMP280;47397;48.194;11.632;2022-08-01T02:04:44;95971.88;;;20.69
61595;BMP280;47397;48.194;11.632;2022-08-01T02:05:45;95971.47;;;20.75
61595;BMP280;47397;48.194;11.632;2022-08-01T02:06:46;95975.53;;;20.79
61595;BMP280;47397;48.194;11.632;2022-08-01T02:07:48;95971.94;;;20.81
61595;BMP280;47397;48.194;11.632;2022-08-01T02:08:50;95971.94;;;20.81
61595;BMP280;47397;48.194;11.632;2022-08-01T02:09:52;95971.94;;;20.81
61595;BMP280;47397;48.194;11.632;2022-08-01T02:10:55;95975.25;;;20.83
61595;BMP280;47397;48.194;11.632;2022-08-01T02:11:57;95980.13;;;20.88
61595;BMP280;47397;48.194;11.632;2022-08-01T02:12:59;95977.34;;;20.91
61595;BMP280;47397;48.194;11.632;2022-08-01T02:14:01;95972.50;;;20.86
61595;BMP280;47397;48.194;11.632;2022-08-01T02:15:03;95973.69;;;20.81
61595;BMP280;47397;48.194;11.632;2022-08-01T02:16:06;95975.25;;;20.83
61595;BMP280;47397;48.194;11.632;2022-08-01T02:17:09;95967.31;;;20.86
61595;BMP280;47397;48.194;11.632;2022-08-01T02:18:11;95981.06;;;20.87
61595;BMP280;47397;48.194;11.632;2022-08-01T02:19:12;95982.91;;;20.85
61595;BMP280;47397;48.194;11.632;2022-08-01T02:20:13;95981.16;;;20.85
61595;BMP280;47397;48.194;11.632;2022-08-01T02:21:16;95980.34;;;20.85
61595;BMP280;47397;48.194;11.632;2022-08-01T02:22:25;95979.75;;;20.80
61595;BMP280;47397;48.194;11.632;2022-08-01T02:23:31;95980.34;;;20.85
61595;BMP280;47397;48.194;11.632;2022-08-01T02:24:36;95980.34;;;20.85
61595;BMP280;47397;48.194;11.632;2022-08-01T02:25:40;95980.53;;;20.82
61595;BMP280;47397;48.194;11.632;2022-08-01T02:26:46;95985.50;;;20.85
61595;BMP280;47397;48.194;11.632;2022-08-01T02:27:53;95976.56;;;20.76
61595;BMP280;47397;48.194;11.632;2022-08-01T02:28:57;95984.31;;;20.76
61595;BMP280;47397;48.194;11.632;2022-08-01T02:30:01;95986.59;;;20.81
61595;BMP280;47397;48.194;11.632;2022-08-01T02:31:06;95979.75;;;20.80
61595;BMP280;47397;48.194;11.632;2022-08-01T02:32:11;95978.09;;;20.79
61595;BMP280;47397;48.194;11.632;2022-08-01T02:33:16;95979.88;;;20.78
61595;BMP280;47397;48.194;11.632;2022-08-01T02:34:19;95983.28;;;20.79
61595;BMP280;47397;48.194;11.632;2022-08-01T02:35:21;95977.38;;;20.77
61595;BMP280;47397;48.194;11.632;2022-08-01T02:36:33;95975.38;;;20.68
61595;BMP280;47397;48.194;11.632;2022-08-01T02:37:36;95980.69;;;20.79
61595;BMP280;47397;48.194;11.632;2022-08-01T02:38:40;95976.41;;;20.65
61595;BMP280;47397;48.194;11.632;2022-08-01T02:39:41;95977.97;;;20.68
61595;BMP280;47397;48.194;11.632;2022-08-01T02:40:45;95973.63;;;20.68
61595;BMP280;47397;48.194;11.632;2022-08-01T02:41:49;95982.78;;;20.59
61595;BMP280;47397;48.194;11.632;2022-08-01T02:42:50;95970.59;;;20.62
61595;BMP280;47397;48.194;11.632;2022-08-01T02:43:57;95978.25;;;20.63
61595;BMP280;47397;48.194;11.632;2022-08-01T02:45:00;95981.94;;;20.59
61595;BMP280;47397;48.194;11.632;2022-08-01T02:46:03;95981.13;;;20.58
61595;BMP280;47397;48.194;11.632;2022-08-01T02:47:06;95985.28;;;20.61
61595;BMP280;47397;48.194;11.632;2022-08-01T02:48:10;95978.25;;;20.63
61595;BMP280;47397;48.194;11.632;2022-08-01T02:49:12;95982.50;;;20.64
61595;BMP280;47397;48.194;11.632;2022-08-01T02:50:14;95983.81;;;20.57
61595;BMP280;47397;48.194;11.632;2022-08-01T02:51:17;95975.13;;;20.58
61595;BMP280;47397;48.194;11.632;2022-08-01T02:52:20;95985.06;;;20.64
61595;BMP280;47397;48.194;11.632;2022-08-01T02:53:23;95985.16;;;20.63
61595;BMP280;47397;48.194;11.632;2022-08-01T02:54:25;95984.34;;;20.62
61595;BMP280;47397;48.194;11.632;2022-08-01T02:55:26;95986.47;;;20.55
61595;BMP280;47397;48.194;11.632;2022-08-01T02:56:28;95994.38;;;20.67
61595;BMP280;47397;48.194;11.632;2022-08-01T02:57:30;95987.28;;;20.70
61595;BMP280;47397;48.194;11.632;2022-08-01T02:58:32;95992.72;;;20.66
61595;BMP280;47397;48.194;11.632;2022-08-01T02:59:36;95990.34;;;20.63
61595;BMP280;47397;48.194;11.632;2022-08-01T03:00:37;95991.69;;;20.68
61595;BMP280;47397;48.194;11.632;2022-08-01T03:01:40;95989.03;;;20.70
61595;BMP280;47397;48.194;11.632;2022-08-01T03:02:44;95990.88;;;20.68
61595;BMP280;47397;48.194;11.632;2022-08-01T03:03:46;95990.03;;;20.67
61595;BMP280;47397;48.194;11.632;2022-08-01T03:04:47;95991.81;;;20.67
61595;BMP280;47397;48.194;11.632;2022-08-01T03:05:48;95995.69;;;20.59
61595;BMP280;47397;48.194;11.632;2022-08-01T03:06:50;95993.22;;;20.58
61595;BMP280;47397;48.194;11.632;2022-08-01T03:07:51;95988.38;;;20.66
61595;BMP280;47397;48.194;11.632;2022-08-01T03:08:53;95983.75;;;20.71
61595;BMP280;47397;48.194;11.632;2022-08-01T03:09:55;95992.28;;;20.59
61595;BMP280;47397;48.194;11.632;2022-08-01T03:10:56;95993.13;;;20.59
61595;BMP280;47397;48.194;11.632;2022-08-01T03:12:00;95993.84;;;20.62
61595;BMP280;47397;48.194;11.632;2022-08-01T03:13:03;95994.13;;;20.57
61595;BMP280;47397;48.194;11.632;2022-08-01T03:14:07;95985.56;;;20.56
61595;BMP280;47397;48.194;11.632;2022-08-01T03:15:09;96000.03;;;20.59
61595;BMP280;47397;48.194;11.632;2022-08-01T03:16:11;95998.66;;;20.53
61595;BMP280;47397;48.194;11.632;2022-08-01T03:17:12;95995.88;;;20.56
61595;BMP280;47397;48.194;11.632;2022-08-01T03:18:14;96002.34;;;20.49
61595;BMP280;47397;48.194;11.632;2022-08-01T03:19:16;95997.19;;;20.49
61595;BMP280;47397;48.194;11.632;2022-08-01T03:20:19;95998.84;;;20.50
61595;BMP280;47397;48.194;11.632;2022-08-01T03:21:21;95994.13;;;20.57
61595;BMP280;47397;48.194;11.632;2022-08-01T03:22:24;95997.53;;;20.57
61595;BMP280;47397;48.194;11.632;2022-08-01T03:23:26;95994.56;;;20.64
61595;BMP280;47397;48.194;11.632;2022-08-01T03:24:29;96002.91;;;20.54
61595;BMP280;47397;48.194;11.632;2022-08-01T03:25:31;95997.97;;;20.36
61595;BMP280;47397;48.194;11.632;2022-08-01T03:26:34;95994.31;;;20.40
61595;BMP280;47397;48.194;11.632;2022-08-01T03:27:36;96000.88;;;20.45
61595;BMP280;47397;48.194;11.632;2022-08-01T03:28:38;95998.31;;;20.45
61595;BMP280;47397;48.194;11.632;2022-08-01T03:29:39;95996.72;;;20.43
61595;BMP280;47397;48.194;11.632;2022-08-01T03:30:41;95991.50;;;20.44
61595;BMP280;47397;48.194;11.632;2022-08-01T03:31:44;96002.16;;;20.52
61595;BMP280;47397;48.194;11.632;2022-08-01T03:32:45;96004.94;;;20.49
61595;BMP280;47397;48.194;11.632;2022-08-01T03:33:47;95998.28;;;20.31
61595;BMP280;47397;48.194;11.632;2022-08-01T03:34:48;96000.22;;;20.27
61595;BMP280;47397;48.194;11.632;2022-08-01T03:35:52;96005.09;;;20.32
61595;BMP280;47397;48.194;11.632;2022-08-01T03:36:58;96007.56;;;20.34
61595;BMP280;47397;48.194;11.632;2022-08-01T03:38:01;95999.72;;;20.35
61595;BMP280;47397;48.194;11.632;2022-08-01T03:39:03;96003.72;;;20.41
61595;BMP280;47397;48.194;11.632;2022-08-01T03:40:07;96008.06;;;20.40
61595;BMP280;47397;48.194;11.632;2022-08-01T03:41:10;96005.63;;;20.37
61595;BMP280;47397;48.194;11.632;2022-08-01T03:42:14;96009.97;;;20.37
61595;BMP280;47397;48.194;11.632;2022-08-01T03:43:19;96005.66;;;20.23
61595;BMP280;47397;48.194;11.632;2022-08-01T03:44:24;96008.03;;;20.26
61595;BMP280;47397;48.194;11.632;2022-08-01T03:45:27;96006.94;;;20.30
61595;BMP280;47397;48.194;11.632;2022-08-01T03:46:31;96008.22;;;20.23
61595;BMP280;47397;48.194;11.632;2022-08-01T03:47:34;96012.94;;;20.30
61595;BMP280;47397;48.194;11.632;2022-08-01T03:48:38;96011.47;;;20.26
61595;BMP280;47397;48.194;11.632;2022-08-01T03:49:43;96013.13;;;20.27
61595;BMP280;47397;48.194;11.632;2022-08-01T03:50:49;96016.34;;;20.17
61595;BMP280;47397;48.194;11.632;2022-08-01T03:51:50;96013.41;;;20.23
61595;BMP280;47397;48.194;11.632;2022-08-01T03:52:53;96023.81;;;20.21
61595;BMP280;47397;48.194;11.632;2022-08-01T03:53:55;96018.47;;;20.24
61595;BMP280;47397;48.194;11.632;2022-08-01T03:54:58;96023.16;;;20.18
61595;BMP280;47397;48.194;11.632;2022-08-01T03:56:00;96018.94;;;20.17
61595;BMP280;47397;48.194;11.632;2022-08-01T03:57:02;96012.09;;;20.16
61595;BMP280;47397;48.194;11.632;2022-08-01T03:58:05;96019.28;;;20.25
61595;BMP280;47397;48.194;11.632;2022-08-01T03:59:06;96017.38;;;20.14
61595;BMP280;47397;48.194;11.632;2022-08-01T04:00:07;96017.81;;;20.21
61595;BMP280;47397;48.194;11.632;2022-08-01T04:01:08;96020.50;;;20.19
61595;BMP280;47397;48.194;11.632;2022-08-01T04:02:09;96020.13;;;20.25
61595;BMP280;47397;48.194;11.632;2022-08-01T04:03:10;96016.63;;;20.12
61595;BMP280;47397;48.194;11.632;2022-08-01T04:04:12;96020.22;;;20.10
61595;BMP280;47397;48.194;11.632;2022-08-01T04:05:15;96028.59;;;20.13
61595;BMP280;47397;48.194;11.632;2022-08-01T04:06:15;96025.84;;;20.16
61595;BMP280;47397;48.194;11.632;2022-08-01T04:07:23;96028.41;;;20.16
61595;BMP280;47397;48.194;11.632;2022-08-01T04:08:34;96017.81;;;20.21
61595;BMP280;47397;48.194;11.632;2022-08-01T04:09:34;96026.47;;;20.20
61595;BMP280;47397;48.194;11.632;2022-08-01T04:10:35;96021.06;;;20.10
61595;BMP280;47397;48.194;11.632;2022-08-01T04:11:36;96024.72;;;20.20
61595;BMP280;47397;48.194;11.632;2022-08-01T04:12:37;96022.97;;;20.21
61595;BMP280;47397;48.194;11.632;2022-08-01T04:13:37;96028.78;;;20.24
61595;BMP280;47397;48.194;11.632;2022-08-01T04:14:37;96028.59;;;20.27
61595;BMP280;47397;48.194;11.632;2022-08-01T04:15:38;96026.66;;;20.17
61595;BMP280;47397;48.194;11.632;2022-08-01T04:16:38;96033.84;;;20.12
61595;BMP280;47397;48.194;11.632;2022-08-01T04:17:39;96033.13;;;20.10
61595;BMP280;47397;48.194;11.632;2022-08-01T04:18:39;96032.75;;;20.16
61595;BMP280;47397;48.194;11.632;2022-08-01T04:19:39;96035.97;;;20.19
61595;BMP280;47397;48.194;11.632;2022-08-01T04:20:41;96041.13;;;20.19
61595;BMP280;47397;48.194;11.632;2022-08-01T04:21:42;96038.00;;;20.14
61595;BMP280;47397;48.194;11.632;2022-08-01T04:22:42;96038.00;;;20.14
61595;BMP280;47397;48.194;11.632;2022-08-01T04:23:43;96030.09;;;20.17
61595;BMP280;47397;48.194;11.632;2022-08-01T04:24:47;96046.03;;;20.24
61595;BMP280;47397;48.194;11.632;2022-08-01T04:25:50;96045.75;;;20.14
61595;BMP280;47397;48.194;11.632;2022-08-01T04:26:52;96040.13;;;20.22
61595;BMP280;47397;48.194;11.632;2022-08-01T04:27:53;96044.19;;;20.26
61595;BMP280;47397;48.194;11.632;2022-08-01T04:28:54;96045.38;;;20.20
61595;BMP280;47397;48.194;11.632;2022-08-01T04:29:57;96052.19;;;20.21
61595;BMP280;47397;48.194;11.632;2022-08-01T04:30:58;96047.69;;;20.25
61595;BMP280;47397;48.194;11.632;2022-08-01T04:32:01;96048.78;;;20.21
61595;BMP280;47397;48.194;11.632;2022-08-01T04:33:04;96049.44;;;20.24
61595;BMP280;47397;48.194;11.632;2022-08-01T04:34:06;96047.97;;;20.20
61595;BMP280;47397;48.194;11.632;2022-08-01T04:35:08;96051.28;;;20.22
61595;BMP280;47397;48.194;11.632;2022-08-01T04:36:14;96046.22;;;20.21
61595;BMP280;47397;48.194;11.632;2022-08-01T04:37:15;96058.00;;;20.25
61595;BMP280;47397;48.194;11.632;2022-08-01T04:38:19;96049.44;;;20.24
61595;BMP280;47397;48.194;11.632;2022-08-01T04:39:23;96054.22;;;20.30
61595;BMP280;47397;48.194;11.632;2022-08-01T04:40:25;96047.41;;;20.29
61595;BMP280;47397;48.194;11.632;2022-08-01T04:41:26;96051.56;;;20.32
61595;BMP280;47397;48.194;11.632;2022-08-01T04:42:27;96052.28;;;20.34
61595;BMP280;47397;48.194;11.632;2022-08-01T04:43:27;96051.56;;;20.32
61595;BMP280;47397;48.194;11.632;2022-08-01T04:44:28;96060.53;;;20.41
61595;BMP280;47397;48.194;11.632;2022-08-01T04:45:28;96056.44;;;20.37
61595;BMP280;47397;48.194;11.632;2022-08-01T04:46:29;96064.91;;;20.39
61595;BMP280;47397;48.194;11.632;2022-08-01T04:47:30;96063.00;;;20.42
61595;BMP280;47397;48.194;11.632;2022-08-01T04:48:32;96059.25;;;20.48
61595;BMP280;47397;48.194;11.632;2022-08-01T04:49:32;96060.19;;;20.47
61595;BMP280;47397;48.194;11.632;2022-08-01T04:50:34;96066.63;;;20.54
61595;BMP280;47397;48.194;11.632;2022-08-01T04:51:36;96062.47;;;20.51
61595;BMP280;47397;48.194;11.632;2022-08-01T04:52:38;96064.50;;;20.46
61595;BMP280;47397;48.194;11.632;2022-08-01T04:53:38;96066.81;;;20.51
61595;BMP280;47397;48.194;11.632;2022-08-01T04:54:39;96065.50;;;20.44
61595;BMP280;47397;48.194;11.632;2022-08-01T04:55:39;96061.66;;;20.51
61595;BMP280;47397;48.194;11.632;2022-08-01T04:56:40;96065.81;;;20.53
61595;BMP280;47397;48.194;11.632;2022-08-01T04:57:42;96060.06;;;20.63
61595;BMP280;47397;48.194;11.632;2022-08-01T04:58:43;96055.00;;;20.61
61595;BMP280;47397;48.194;11.632;2022-08-01T04:59:43;96063.84;;;20.71
61595;BMP280;47397;48.194;11.632;2022-08-01T05:00:44;96060.72;;;20.66
61595;BMP280;47397;48.194;11.632;2022-08-01T05:01:48;96067.63;;;20.66
61595;BMP280;47397;48.194;11.632;2022-08-01T05:02:48;96065.41;;;20.74
61595;BMP280;47397;48.194;11.632;2022-08-01T05:03:49;96065.59;;;20.71
61595;BMP280;47397;48.194;11.632;2022-08-01T05:04:49;96067.34;;;20.70
61595;BMP280;47397;48.194;11.632;2022-08-01T05:05:50;96061.44;;;20.68
61595;BMP280;47397;48.194;11.632;2022-08-01T05:06:51;96064.94;;;20.67
61595;BMP280;47397;48.194;11.632;2022-08-01T05:07:52;96066.69;;;20.67
61595;BMP280;47397;48.194;11.632;2022-08-01T05:08:52;96074.81;;;20.75
61595;BMP280;47397;48.194;11.632;2022-08-01T05:09:53;96072.88;;;20.78
61595;BMP280;47397;48.194;11.632;2022-08-01T05:10:53;96067.44;;;20.83
61595;BMP280;47397;48.194;11.632;2022-08-01T05:11:54;96071.50;;;20.87
61595;BMP280;47397;48.194;11.632;2022-08-01T05:12:54;96065.03;;;20.80
61595;BMP280;47397;48.194;11.632;2022-08-01T05:13:54;96071.69;;;20.84
61595;BMP280;47397;48.194;11.632;2022-08-01T05:14:55;96071.41;;;20.88
61595;BMP280;47397;48.194;11.632;2022-08-01T05:15:55;96075.34;;;20.94
61595;BMP280;47397;48.194;11.632;2022-08-01T05:16:56;96069.53;;;20.90
61595;BMP280;47397;48.194;11.632;2022-08-01T05:17:56;96074.97;;;21.00
61595;BMP280;47397;48.194;11.632;2022-08-01T05:18:56;96079.69;;;20.94
61595;BMP280;47397;48.194;11.632;2022-08-01T05:19:57;96078.88;;;20.93
61595;BMP280;47397;48.194;11.632;2022-08-01T05:20:57;96071.66;;;20.98
61595;BMP280;47397;48.194;11.632;2022-08-01T05:22:00;96072.28;;;21.02
61595;BMP280;47397;48.194;11.632;2022-08-01T05:23:01;96080.47;;;21.08
61595;BMP280;47397;48.194;11.632;2022-08-01T05:24:02;96080.31;;;20.97
61595;BMP280;47397;48.194;11.632;2022-08-01T05:25:03;96077.66;;;20.99
61595;BMP280;47397;48.194;11.632;2022-08-01T05:26:03;96078.28;;;21.02
61595;BMP280;47397;48.194;11.632;2022-08-01T05:27:04;96075.88;;;20.99
61595;BMP280;47397;48.194;11.632;2022-08-01T05:28:05;96082.53;;;21.03
61595;BMP280;47397;48.194;11.632;2022-08-01T05:29:05;96078.09;;;21.05
61595;BMP280;47397;48.194;11.632;2022-08-01T05:30:07;96081.78;;;21.01
61595;BMP280;47397;48.194;11.632;2022-08-01T05:31:08;96085.50;;;20.97
61595;BMP280;47397;48.194;11.632;2022-08-01T05:32:08;96085.09;;;21.03
61595;BMP280;47397;48.194;11.632;2022-08-01T05:33:09;96078.88;;;20.93
61595;BMP280;47397;48.194;11.632;2022-08-01T05:34:09;96085.22;;;21.02
61595;BMP280;47397;48.194;11.632;2022-08-01T05:35:10;96086.13;;;21.01
61595;BMP280;47397;48.194;11.632;2022-08-01T05:36:10;96080.41;;;20.96
61595;BMP280;47397;48.194;11.632;2022-08-01T05:37:12;96091.94;;;21.04
61595;BMP280;47397;48.194;11.632;2022-08-01T05:38:12;96088.44;;;21.05
61595;BMP280;47397;48.194;11.632;2022-08-01T05:39:13;96087.22;;;21.11
61595;BMP280;47397;48.194;11.632;2022-08-01T05:40:14;96088.03;;;21.11
61595;BMP280;47397;48.194;11.632;2022-08-01T05:41:14;96093.59;;;21.19
61595;BMP280;47397;48.194;11.632;2022-08-01T05:42:15;96089.69;;;21.12
61595;BMP280;47397;48.194;11.632;2022-08-01T05:43:15;96091.81;;;21.20
61595;BMP280;47397;48.194;11.632;2022-08-01T05:44:16;96090.91;;;21.21
61595;BMP280;47397;48.194;11.632;2022-08-01T05:45:16;96096.53;;;21.28
61595;BMP280;47397;48.194;11.632;2022-08-01T05:46:16;96099.59;;;21.20
61595;BMP280;47397;48.194;11.632;2022-08-01T05:47:17;96092.50;;;21.24
61595;BMP280;47397;48.194;11.632;2022-08-01T05:48:18;96092.09;;;21.15
61595;BMP280;47397;48.194;11.632;2022-08-01T05:49:18;96095.69;;;21.13
61595;BMP280;47397;48.194;11.632;2022-08-01T05:50:18;96098.28;;;21.13
61595;BMP280;47397;48.194;11.632;2022-08-01T05:51:19;96098.56;;;21.08
61595;BMP280;47397;48.194;11.632;2022-08-01T05:52:21;96095.72;;;20.99
61595;BMP280;47397;48.194;11.632;2022-08-01T05:53:21;96092.66;;;21.06